Time;durP1;ratioP1;P1;durP2;ratioP2;P2;SDS_P1;SDS_P2;PMS_P1;PMS_P2;Temp;Humidity;BMP_temperature;BMP_pressure;BME280_temperature;BME280_humidity;BME280_pressure;Samples;Min_cycle;Max_cycle;Signal;HPM_P1;HPM_P2
2023/08/09 00:01:27;;;;;;;6.10;2.20;;;;;;;;;;5053752;28;20056;-69
2023/08/09 00:03:53;;;;;;;3.10;2.00;;;;;;;;;;5046168;28;20052;-69
2023/08/09 00:06:18;;;;;;;6.80;2.10;;;;;;;;;;5045923;28;20037;-69
2023/08/09 00:08:44;;;;;;;6.13;2.10;;;;;;;;;;5045316;28;20041;-69
2023/08/09 00:11:09;;;;;;;5.63;2.63;;;;;;;;;;5045575;28;20065;-68
2023/08/09 00:13:34;;;;;;;5.32;2.13;;;;;;;;;;5047005;28;20454;-69
2023/08/09 00:16:00;;;;;;;3.30;2.35;;;;;;;;;;5044864;28;20044;-69
2023/08/09 00:18:25;;;;;;;5.97;2.45;;;;;;;;;;5044071;28;20083;-68
2023/08/09 00:20:50;;;;;;;3.88;2.40;;;;;;;;;;5045768;28;20033;-69
2023/08/09 00:23:16;;;;;;;5.82;2.30;;;;;;;;;;5045795;28;20025;-69
2023/08/09 00:25:42;;;;;;;3.47;2.22;;;;;;;;;;5046195;28;20457;-69
2023/08/09 00:28:07;;;;;;;4.55;2.25;;;;;;;;;;5044056;28;20036;-69
2023/08/09 00:30:32;;;;;;;4.28;2.28;;;;;;;;;;5043097;28;20049;-69
2023/08/09 00:32:58;;;;;;;3.95;2.60;;;;;;;;;;5046226;28;20590;-69
2023/08/09 00:35:23;;;;;;;3.15;2.05;;;;;;;;;;5043844;28;20044;-69
2023/08/09 00:37:49;;;;;;;7.65;2.60;;;;;;;;;;5045929;28;20586;-69
2023/08/09 00:40:14;;;;;;;4.00;2.50;;;;;;;;;;5045164;28;20573;-69
2023/08/09 00:42:41;;;;;;;6.18;3.30;;;;;;;;;;5042655;28;20025;-69
2023/08/09 00:45:07;;;;;;;3.08;2.30;;;;;;;;;;5046299;28;20473;-69
2023/08/09 00:47:33;;;;;;;10.48;2.70;;;;;;;;;;5037572;28;20059;-69
2023/08/09 00:50:00;;;;;;;6.22;2.75;;;;;;;;;;5055533;28;20032;-68
2023/08/09 00:52:27;;;;;;;4.53;2.75;;;;;;;;;;5059030;28;20041;-69
2023/08/09 00:54:53;;;;;;;4.40;2.75;;;;;;;;;;5017587;28;20116;-69
2023/08/09 00:57:19;;;;;;;11.00;2.63;;;;;;;;;;5044772;28;20037;-68
2023/08/09 00:59:44;;;;;;;4.25;2.63;;;;;;;;;;5061940;28;20035;-69
2023/08/09 01:02:09;;;;;;;7.22;2.67;;;;;;;;;;5065361;28;20043;-68
2023/08/09 01:04:36;;;;;;;3.65;2.60;;;;;;;;;;5055821;28;20040;-69
2023/08/09 01:07:01;;;;;;;5.43;2.20;;;;;;;;;;5064584;28;20456;-69
2023/08/09 01:09:37;;;;;;;8.18;2.80;;;;;;;;;;5062167;28;20878;-68
2023/08/09 01:12:10;;;;;;;5.53;2.58;;;;;;;;;;5066186;28;20173;-68
2023/08/09 01:14:40;;;;;;;4.03;2.15;;;;;;;;;;5063530;28;20032;-69
2023/08/09 01:17:07;;;;;;;3.67;2.20;;;;;;;;;;5066285;28;20056;-69
2023/08/09 01:19:48;;;;;;;4.95;2.70;;;;;;;;;;5066326;28;20127;-69
2023/08/09 01:22:23;;;;;;;5.15;2.50;;;;;;;;;;5042576;28;20049;-69
2023/08/09 01:24:49;;;;;;;3.58;2.50;;;;;;;;;;5044870;28;20024;-69
2023/08/09 01:27:15;;;;;;;7.50;2.40;;;;;;;;;;5043148;28;20545;-68
2023/08/09 01:29:41;;;;;;;4.28;2.20;;;;;;;;;;5038435;28;20045;-68
2023/08/09 01:32:06;;;;;;;6.80;2.38;;;;;;;;;;5043718;28;20033;-69
2023/08/09 01:34:34;;;;;;;5.60;2.30;;;;;;;;;;5033926;28;20045;-69
2023/08/09 01:37:19;;;;;;;3.53;2.30;;;;;;;;;;5029181;28;20118;-69
2023/08/09 01:39:48;;;;;;;8.48;2.40;;;;;;;;;;5042968;28;20699;-68
2023/08/09 01:42:14;;;;;;;4.32;2.30;;;;;;;;;;5044767;28;20040;-69
2023/08/09 01:44:40;;;;;;;5.43;2.47;;;;;;;;;;5041514;28;20029;-69
2023/08/09 01:47:05;;;;;;;3.83;2.33;;;;;;;;;;5043731;28;20067;-69
2023/08/09 01:49:31;;;;;;;3.45;2.70;;;;;;;;;;5024336;28;20037;-69
2023/08/09 01:51:57;;;;;;;5.05;2.40;;;;;;;;;;5023703;28;20033;-69
2023/08/09 01:54:22;;;;;;;4.10;2.38;;;;;;;;;;5024216;28;20521;-69
2023/08/09 01:56:47;;;;;;;5.57;2.40;;;;;;;;;;5044045;28;20119;-69
2023/08/09 01:59:14;;;;;;;4.15;2.50;;;;;;;;;;5041001;28;20041;-68
2023/08/09 02:01:40;;;;;;;4.13;2.55;;;;;;;;;;5044345;28;20120;-69
2023/08/09 02:04:09;;;;;;;5.45;2.40;;;;;;;;;;5042164;28;20112;-69
2023/08/09 02:06:34;;;;;;;5.53;2.28;;;;;;;;;;5044000;28;20037;-69
2023/08/09 02:09:01;;;;;;;3.55;2.35;;;;;;;;;;5045100;28;20029;-69
2023/08/09 02:11:26;;;;;;;6.90;2.60;;;;;;;;;;5042325;28;20661;-68
2023/08/09 02:13:52;;;;;;;5.60;3.20;;;;;;;;;;5044355;28;20537;-69
2023/08/09 02:16:18;;;;;;;5.22;2.42;;;;;;;;;;5043256;28;20040;-69
2023/08/09 02:18:43;;;;;;;6.78;2.50;;;;;;;;;;5042269;28;20067;-68
2023/08/09 02:21:10;;;;;;;5.30;2.60;;;;;;;;;;5044629;28;20037;-69
2023/08/09 02:23:37;;;;;;;4.63;2.63;;;;;;;;;;5043406;28;20040;-69
2023/08/09 02:26:03;;;;;;;6.82;2.60;;;;;;;;;;5044905;28;20845;-69
2023/08/09 02:28:28;;;;;;;4.30;2.55;;;;;;;;;;5043230;28;20090;-69
2023/08/09 02:30:54;;;;;;;3.90;2.70;;;;;;;;;;5041934;28;20056;-69
2023/08/09 02:33:19;;;;;;;4.95;2.42;;;;;;;;;;5044166;28;20037;-69
2023/08/09 02:35:53;;;;;;;9.10;2.70;;;;;;;;;;5042205;28;20435;-68
2023/08/09 02:38:19;;;;;;;6.03;2.53;;;;;;;;;;5043373;28;20127;-68
2023/08/09 02:40:44;;;;;;;3.42;2.55;;;;;;;;;;5042868;28;20160;-69
2023/08/09 02:43:10;;;;;;;6.10;2.88;;;;;;;;;;5043380;28;20095;-69
2023/08/09 02:45:35;;;;;;;4.60;2.95;;;;;;;;;;5051152;28;20037;-68
2023/08/09 02:48:01;;;;;;;5.90;2.80;;;;;;;;;;5051934;28;20033;-69
2023/08/09 02:50:26;;;;;;;4.38;2.67;;;;;;;;;;5044436;28;20072;-68
2023/08/09 02:52:51;;;;;;;6.57;2.65;;;;;;;;;;5041103;28;20034;-69
2023/08/09 02:55:17;;;;;;;5.30;2.92;;;;;;;;;;5023732;28;20037;-69
2023/08/09 02:57:42;;;;;;;6.57;2.72;;;;;;;;;;5023023;28;20072;-68
2023/08/09 03:00:09;;;;;;;6.82;2.88;;;;;;;;;;5023792;28;20529;-69
2023/08/09 03:02:34;;;;;;;5.68;2.63;;;;;;;;;;5042193;28;20037;-69
2023/08/09 03:05:00;;;;;;;6.57;2.88;;;;;;;;;;5043858;28;20472;-69
2023/08/09 03:07:25;;;;;;;5.55;2.95;;;;;;;;;;5042802;28;20048;-69
2023/08/09 03:09:51;;;;;;;4.43;2.72;;;;;;;;;;5043389;28;20673;-69
2023/08/09 03:12:16;;;;;;;6.28;3.40;;;;;;;;;;5043236;28;20111;-69
2023/08/09 03:14:42;;;;;;;8.77;3.78;;;;;;;;;;5043213;28;20101;-69
2023/08/09 03:17:07;;;;;;;6.07;3.42;;;;;;;;;;5043263;28;20072;-69
2023/08/09 03:19:33;;;;;;;7.63;3.80;;;;;;;;;;5043310;28;20095;-69
2023/08/09 03:21:58;;;;;;;6.40;3.50;;;;;;;;;;5040888;28;20510;-68
2023/08/09 03:24:24;;;;;;;7.30;3.40;;;;;;;;;;5042843;28;20028;-69
2023/08/09 03:26:49;;;;;;;9.82;4.05;;;;;;;;;;5042101;28;20414;-69
2023/08/09 03:29:14;;;;;;;8.45;4.45;;;;;;;;;;5041586;28;20602;-68
2023/08/09 03:31:41;;;;;;;10.05;4.75;;;;;;;;;;5042964;28;20040;-69
2023/08/09 03:34:07;;;;;;;10.10;5.05;;;;;;;;;;5042621;28;20945;-69
2023/08/09 03:36:32;;;;;;;7.88;4.95;;;;;;;;;;5043380;28;20044;-69
2023/08/09 03:38:57;;;;;;;11.30;5.45;;;;;;;;;;5043158;28;20041;-69
2023/08/09 03:41:23;;;;;;;10.27;5.40;;;;;;;;;;5042464;28;20072;-68
2023/08/09 03:43:48;;;;;;;8.95;5.53;;;;;;;;;;5042422;28;20033;-69
2023/08/09 03:46:13;;;;;;;12.25;5.28;;;;;;;;;;5023942;28;20033;-69
2023/08/09 03:48:39;;;;;;;14.60;5.82;;;;;;;;;;5022997;28;20034;-69
2023/08/09 03:51:04;;;;;;;8.57;5.32;;;;;;;;;;5023288;28;20179;-69
2023/08/09 03:53:29;;;;;;;11.45;5.40;;;;;;;;;;5012156;28;20062;-69
2023/08/09 03:55:55;;;;;;;15.30;6.15;;;;;;;;;;5004092;28;20041;-68
2023/08/09 03:58:20;;;;;;;13.05;5.80;;;;;;;;;;5008224;28;20052;-69
2023/08/09 04:00:46;;;;;;;12.57;6.53;;;;;;;;;;5023740;28;20064;-68
2023/08/09 04:03:12;;;;;;;10.60;6.15;;;;;;;;;;5023559;28;20048;-69
2023/08/09 04:05:37;;;;;;;13.80;5.97;;;;;;;;;;5023526;28;20042;-68
2023/08/09 04:08:03;;;;;;;11.85;6.10;;;;;;;;;;5028056;28;20132;-69
2023/08/09 04:10:29;;;;;;;11.07;5.93;;;;;;;;;;5032654;28;20033;-69
2023/08/09 04:12:54;;;;;;;11.98;5.90;;;;;;;;;;5003069;28;20125;-69
2023/08/09 04:15:21;;;;;;;16.52;6.20;;;;;;;;;;5022720;28;20033;-69
2023/08/09 04:17:48;;;;;;;12.55;6.38;;;;;;;;;;5022456;28;20139;-68
2023/08/09 04:20:14;;;;;;;13.48;6.13;;;;;;;;;;5021793;28;20791;-69
2023/08/09 04:22:39;;;;;;;14.60;6.65;;;;;;;;;;5023028;28;20042;-69
2023/08/09 04:25:05;;;;;;;12.00;5.75;;;;;;;;;;5021141;28;20100;-69
2023/08/09 04:27:32;;;;;;;12.68;6.43;;;;;;;;;;5021723;28;20521;-69
2023/08/09 04:30:00;;;;;;;15.52;6.40;;;;;;;;;;5026633;28;20104;-69
2023/08/09 04:32:25;;;;;;;19.30;7.40;;;;;;;;;;5026241;28;20721;-69
2023/08/09 04:34:50;;;;;;;13.68;6.53;;;;;;;;;;5027068;28;20032;-69
2023/08/09 04:37:16;;;;;;;15.68;7.50;;;;;;;;;;5026022;28;20044;-69
2023/08/09 04:39:41;;;;;;;16.83;6.82;;;;;;;;;;5024585;28;20494;-69
2023/08/09 04:42:07;;;;;;;18.65;6.75;;;;;;;;;;5028504;28;20041;-69
2023/08/09 04:44:32;;;;;;;7.97;4.28;;;;;;;;;;5026753;28;20044;-69
2023/08/09 04:46:58;;;;;;;6.07;3.38;;;;;;;;;;5026987;28;20048;-69
2023/08/09 04:49:23;;;;;;;6.70;4.05;;;;;;;;;;5025409;28;20045;-69
2023/08/09 04:51:49;;;;;;;6.13;3.97;;;;;;;;;;5025344;28;20175;-69
2023/08/09 04:54:14;;;;;;;6.07;3.88;;;;;;;;;;5011750;28;20041;-69
2023/08/09 04:56:40;;;;;;;6.07;3.50;;;;;;;;;;5034777;28;20037;-69
2023/08/09 04:59:05;;;;;;;7.38;4.18;;;;;;;;;;5018463;28;20529;-69
2023/08/09 05:01:30;;;;;;;6.50;4.22;;;;;;;;;;5024568;28;20033;-69
2023/08/09 05:03:56;;;;;;;7.38;4.15;;;;;;;;;;5023863;28;20153;-69
2023/08/09 05:06:22;;;;;;;8.75;4.82;;;;;;;;;;5024765;28;20117;-69
2023/08/09 05:08:48;;;;;;;8.80;4.45;;;;;;;;;;5025496;28;20715;-69
2023/08/09 05:11:13;;;;;;;8.25;4.88;;;;;;;;;;5025225;28;20052;-68
2023/08/09 05:13:38;;;;;;;9.88;4.45;;;;;;;;;;5023723;28;20052;-69
2023/08/09 05:16:04;;;;;;;10.05;5.10;;;;;;;;;;5025323;28;20030;-69
2023/08/09 05:18:29;;;;;;;6.50;4.13;;;;;;;;;;5025169;28;20049;-68
2023/08/09 05:20:54;;;;;;;8.00;4.32;;;;;;;;;;5026191;28;20540;-69
2023/08/09 05:23:20;;;;;;;8.30;4.78;;;;;;;;;;5026015;28;20080;-68
2023/08/09 05:25:45;;;;;;;7.55;4.30;;;;;;;;;;5023330;28;20076;-69
2023/08/09 05:28:11;;;;;;;7.40;4.00;;;;;;;;;;5026483;28;20095;-69
2023/08/09 05:30:36;;;;;;;7.70;4.32;;;;;;;;;;5029121;28;20444;-69
2023/08/09 05:33:02;;;;;;;7.82;4.03;;;;;;;;;;5035172;28;20041;-69
2023/08/09 05:35:27;;;;;;;7.75;3.88;;;;;;;;;;5030491;28;20049;-69
2023/08/09 05:37:53;;;;;;;6.68;3.40;;;;;;;;;;5026112;28;20049;-69
2023/08/09 05:40:18;;;;;;;8.35;3.85;;;;;;;;;;5024269;28;20175;-69
2023/08/09 05:42:44;;;;;;;7.20;3.42;;;;;;;;;;5024286;28;20053;-69
2023/08/09 05:45:09;;;;;;;7.72;3.78;;;;;;;;;;5025502;28;20037;-69
2023/08/09 05:47:35;;;;;;;8.50;3.40;;;;;;;;;;5024497;28;20049;-68
2023/08/09 05:50:00;;;;;;;6.18;3.70;;;;;;;;;;5025178;28;20064;-69
2023/08/09 05:52:26;;;;;;;8.00;4.18;;;;;;;;;;5022732;28;20045;-69
2023/08/09 05:54:52;;;;;;;9.20;4.18;;;;;;;;;;5004898;28;20121;-69
2023/08/09 05:57:17;;;;;;;7.65;4.03;;;;;;;;;;5005095;28;20040;-69
2023/08/09 05:59:43;;;;;;;6.75;3.92;;;;;;;;;;5056488;28;20195;-69
2023/08/09 06:02:08;;;;;;;8.82;3.67;;;;;;;;;;5044695;28;20049;-69
2023/08/09 06:04:34;;;;;;;6.43;3.80;;;;;;;;;;5044264;28;20033;-69
2023/08/09 06:06:59;;;;;;;6.55;4.40;;;;;;;;;;5043744;28;20064;-69
2023/08/09 06:09:24;;;;;;;9.88;3.72;;;;;;;;;;5044529;28;20039;-69
2023/08/09 06:11:50;;;;;;;7.78;4.18;;;;;;;;;;5044276;28;20532;-68
2023/08/09 06:14:15;;;;;;;8.82;4.28;;;;;;;;;;5042787;28;20045;-68
2023/08/09 06:16:45;;;;;;;7.53;4.32;;;;;;;;;;5044009;28;20064;-69
2023/08/09 06:19:10;;;;;;;8.13;4.50;;;;;;;;;;5041685;28;20033;-69
2023/08/09 06:21:36;;;;;;;8.25;3.67;;;;;;;;;;5023587;28;20053;-68
2023/08/09 06:24:01;;;;;;;8.60;4.47;;;;;;;;;;5020958;28;20822;-69
2023/08/09 06:26:27;;;;;;;7.95;4.32;;;;;;;;;;5034969;28;20102;-69
2023/08/09 06:28:52;;;;;;;8.35;4.13;;;;;;;;;;5019677;28;20049;-69
2023/08/09 06:31:17;;;;;;;11.88;4.30;;;;;;;;;;5017083;28;20041;-69
2023/08/09 06:33:43;;;;;;;14.45;5.13;;;;;;;;;;5019490;28;20165;-69
2023/08/09 06:36:09;;;;;;;8.40;4.47;;;;;;;;;;5023931;28;20419;-69
2023/08/09 06:38:35;;;;;;;9.18;4.93;;;;;;;;;;5020151;28;20510;-69
2023/08/09 06:41:00;;;;;;;9.35;5.00;;;;;;;;;;5022301;28;20041;-69
2023/08/09 06:43:26;;;;;;;10.00;4.75;;;;;;;;;;5022513;28;20037;-69
2023/08/09 06:45:52;;;;;;;7.78;4.57;;;;;;;;;;5022850;28;20606;-69
2023/08/09 06:48:17;;;;;;;11.90;5.55;;;;;;;;;;5021323;28;20043;-69
2023/08/09 06:50:43;;;;;;;10.52;5.25;;;;;;;;;;5023864;28;20041;-69
2023/08/09 06:53:08;;;;;;;9.98;5.15;;;;;;;;;;5025508;28;20044;-69
2023/08/09 06:55:33;;;;;;;11.30;5.20;;;;;;;;;;5024264;28;20041;-69
2023/08/09 06:57:59;;;;;;;12.18;5.63;;;;;;;;;;5026780;28;20050;-69
2023/08/09 07:00:24;;;;;;;9.80;5.22;;;;;;;;;;5017143;28;20041;-69
2023/08/09 07:02:50;;;;;;;10.38;5.60;;;;;;;;;;5019015;28;20120;-69
2023/08/09 07:05:18;;;;;;;11.90;5.63;;;;;;;;;;5020777;28;20088;-68
2023/08/09 07:07:51;;;;;;;11.85;5.05;;;;;;;;;;5020498;28;20091;-70
2023/08/09 07:10:17;;;;;;;11.20;5.55;;;;;;;;;;5022486;28;20065;-69
2023/08/09 07:12:43;;;;;;;12.13;5.25;;;;;;;;;;5022170;28;20041;-69
2023/08/09 07:15:10;;;;;;;8.20;4.95;;;;;;;;;;5020888;28;20033;-69
2023/08/09 07:17:36;;;;;;;7.78;4.85;;;;;;;;;;4996960;28;20045;-69
2023/08/09 07:20:11;;;;;;;9.35;5.55;;;;;;;;;;5010258;28;20033;-69
2023/08/09 07:22:38;;;;;;;10.23;5.10;;;;;;;;;;5021261;28;20864;-69
2023/08/09 07:25:04;;;;;;;10.88;5.47;;;;;;;;;;5022118;28;20067;-69
2023/08/09 07:27:32;;;;;;;9.60;5.47;;;;;;;;;;5022894;28;20523;-69
2023/08/09 07:29:57;;;;;;;8.73;5.35;;;;;;;;;;4984138;28;1132018;-69
2023/08/09 07:32:23;;;;;;;11.20;5.40;;;;;;;;;;5020410;28;20076;-69
2023/08/09 07:34:49;;;;;;;10.07;5.50;;;;;;;;;;5023543;28;20147;-69
2023/08/09 07:37:14;;;;;;;8.90;5.50;;;;;;;;;;5022597;28;20045;-69
2023/08/09 07:39:39;;;;;;;10.73;5.55;;;;;;;;;;5023110;28;20033;-69
2023/08/09 07:42:05;;;;;;;9.23;5.82;;;;;;;;;;5023825;28;20062;-69
2023/08/09 07:44:30;;;;;;;8.32;5.00;;;;;;;;;;5018055;28;20522;-69
2023/08/09 07:46:56;;;;;;;8.30;5.60;;;;;;;;;;5019636;28;20057;-69
2023/08/09 07:49:21;;;;;;;7.32;4.43;;;;;;;;;;5018607;28;20041;-69
2023/08/09 07:51:46;;;;;;;7.32;4.40;;;;;;;;;;5023469;28;20517;-69
2023/08/09 07:54:12;;;;;;;7.68;4.95;;;;;;;;;;5037586;28;20536;-69
2023/08/09 07:56:38;;;;;;;7.90;5.10;;;;;;;;;;5041796;28;20064;-69
2023/08/09 07:59:03;;;;;;;8.15;5.10;;;;;;;;;;5043083;28;20086;-69
2023/08/09 08:01:29;;;;;;;7.03;4.85;;;;;;;;;;5037411;28;20076;-69
2023/08/09 08:03:54;;;;;;;7.72;4.50;;;;;;;;;;5045276;28;20041;-69
2023/08/09 08:06:20;;;;;;;5.75;4.45;;;;;;;;;;5062865;28;20033;-69
2023/08/09 08:08:45;;;;;;;6.03;4.18;;;;;;;;;;5040403;28;20040;-68
2023/08/09 08:11:11;;;;;;;7.93;5.40;;;;;;;;;;5035158;28;20521;-69
2023/08/09 08:13:37;;;;;;;6.63;5.20;;;;;;;;;;5046806;28;20044;-68
2023/08/09 08:16:04;;;;;;;8.30;4.68;;;;;;;;;;5047974;28;20037;-69
2023/08/09 08:18:30;;;;;;;8.18;4.97;;;;;;;;;;5054180;28;20033;-70
2023/08/09 08:20:57;;;;;;;8.15;5.00;;;;;;;;;;5056516;28;20100;-69
2023/08/09 08:23:22;;;;;;;7.32;4.57;;;;;;;;;;5049269;28;20029;-70
2023/08/09 08:25:48;;;;;;;9.10;4.57;;;;;;;;;;5047532;28;20106;-70
2023/08/09 08:28:13;;;;;;;6.03;4.38;;;;;;;;;;5046185;28;20051;-70
2023/08/09 08:30:38;;;;;;;10.02;4.75;;;;;;;;;;5046688;28;20204;-70
2023/08/09 08:33:04;;;;;;;7.53;4.85;;;;;;;;;;5046946;28;20075;-69
2023/08/09 08:35:33;;;;;;;7.78;4.95;;;;;;;;;;5046526;28;20029;-70
2023/08/09 08:37:59;;;;;;;10.88;4.88;;;;;;;;;;5047020;28;20526;-70
2023/08/09 08:40:25;;;;;;;7.95;4.93;;;;;;;;;;5045786;28;20051;-69
2023/08/09 08:42:51;;;;;;;8.38;4.72;;;;;;;;;;5045870;28;20029;-69
2023/08/09 08:45:19;;;;;;;5.38;3.92;;;;;;;;;;5046397;28;20039;-69
2023/08/09 08:47:45;;;;;;;6.85;4.30;;;;;;;;;;5047119;28;20036;-69
2023/08/09 08:50:13;;;;;;;5.60;3.90;;;;;;;;;;5046026;28;20044;-69
2023/08/09 08:52:42;;;;;;;6.78;4.18;;;;;;;;;;5046621;28;20105;-69
2023/08/09 08:55:09;;;;;;;5.55;3.67;;;;;;;;;;5044855;28;20140;-69
2023/08/09 08:57:39;;;;;;;6.50;4.00;;;;;;;;;;5032712;28;20116;-69
2023/08/09 09:00:16;;;;;;;6.97;3.72;;;;;;;;;;5015655;28;20025;-69
2023/08/09 09:02:45;;;;;;;6.35;3.30;;;;;;;;;;5018023;28;20108;-69
2023/08/09 09:05:12;;;;;;;3.45;2.42;;;;;;;;;;5031929;28;20106;-69
2023/08/09 09:07:39;;;;;;;3.42;2.72;;;;;;;;;;5044422;28;20037;-70
2023/08/09 09:10:06;;;;;;;7.35;3.58;;;;;;;;;;5041983;28;20037;-69
2023/08/09 09:12:36;;;;;;;5.03;3.10;;;;;;;;;;5043871;28;20045;-69
2023/08/09 09:15:06;;;;;;;5.63;3.40;;;;;;;;;;5045536;28;20532;-69
2023/08/09 09:17:40;;;;;;;4.35;2.72;;;;;;;;;;5045429;28;20017;-69
2023/08/09 09:20:10;;;;;;;2.95;2.65;;;;;;;;;;5044279;28;20111;-69
2023/08/09 09:22:36;;;;;;;3.53;2.00;;;;;;;;;;5046246;28;20048;-69
2023/08/09 09:25:02;;;;;;;4.10;2.38;;;;;;;;;;5045842;28;20520;-69
2023/08/09 09:27:28;;;;;;;5.13;1.90;;;;;;;;;;5045681;28;20086;-69
2023/08/09 09:29:53;;;;;;;3.10;2.17;;;;;;;;;;5033530;28;20060;-69
2023/08/09 09:32:20;;;;;;;3.10;2.47;;;;;;;;;;5025480;28;20112;-69
2023/08/09 09:34:45;;;;;;;3.38;2.10;;;;;;;;;;5026455;28;20033;-69
2023/08/09 09:37:17;;;;;;;6.22;2.42;;;;;;;;;;5027456;28;20041;-69
2023/08/09 09:39:43;;;;;;;3.83;2.53;;;;;;;;;;5030902;28;20037;-68
2023/08/09 09:42:10;;;;;;;2.83;2.00;;;;;;;;;;5035355;28;20052;-70
2023/08/09 09:44:35;;;;;;;3.65;1.92;;;;;;;;;;5027876;28;20108;-69
2023/08/09 09:47:02;;;;;;;3.67;2.22;;;;;;;;;;5024548;28;20037;-69
2023/08/09 09:49:28;;;;;;;5.32;2.05;;;;;;;;;;5007972;28;20072;-69
2023/08/09 09:51:56;;;;;;;3.08;2.10;;;;;;;;;;5025117;28;20207;-69
2023/08/09 09:54:22;;;;;;;3.97;1.83;;;;;;;;;;5024500;28;20033;-69
2023/08/09 09:56:47;;;;;;;4.13;2.10;;;;;;;;;;5025863;28;20026;-69
2023/08/09 09:59:13;;;;;;;2.88;1.98;;;;;;;;;;5012103;28;20512;-69
2023/08/09 10:01:42;;;;;;;2.83;1.90;;;;;;;;;;5005263;28;20029;-69
2023/08/09 10:04:11;;;;;;;3.33;1.88;;;;;;;;;;5004792;28;20044;-70
2023/08/09 10:06:42;;;;;;;3.88;1.80;;;;;;;;;;4987428;28;20041;-69
2023/08/09 10:09:09;;;;;;;3.75;1.83;;;;;;;;;;5006737;28;20030;-70
2023/08/09 10:11:36;;;;;;;3.22;2.20;;;;;;;;;;5025887;28;20041;-70
2023/08/09 10:14:05;;;;;;;3.92;1.95;;;;;;;;;;5004999;28;20041;-70
2023/08/09 10:16:32;;;;;;;3.22;2.00;;;;;;;;;;5004990;28;20033;-70
2023/08/09 10:19:05;;;;;;;3.00;1.80;;;;;;;;;;4990467;28;20645;-70
2023/08/09 10:21:31;;;;;;;3.33;1.73;;;;;;;;;;5004290;28;20042;-70
2023/08/09 10:24:13;;;;;;;2.88;2.00;;;;;;;;;;5012709;28;20033;-70
2023/08/09 10:26:41;;;;;;;5.00;2.20;;;;;;;;;;5011448;28;20647;-69
2023/08/09 10:29:18;;;;;;;6.22;2.10;;;;;;;;;;5027114;28;20149;-69
2023/08/09 10:31:43;;;;;;;2.75;1.90;;;;;;;;;;5022901;28;20610;-69
2023/08/09 10:34:09;;;;;;;3.63;1.88;;;;;;;;;;5024762;28;20125;-69
2023/08/09 10:36:35;;;;;;;1.95;1.60;;;;;;;;;;5023943;28;20046;-69
2023/08/09 10:39:14;;;;;;;3.47;2.00;;;;;;;;;;5024881;28;20047;-69
2023/08/09 10:42:11;;;;;;;2.35;1.90;;;;;;;;;;5022844;28;20061;-69
2023/08/09 10:44:48;;;;;;;3.35;1.80;;;;;;;;;;5017169;28;20029;-69
2023/08/09 10:47:26;;;;;;;3.80;1.83;;;;;;;;;;5024501;28;20400;-69
2023/08/09 10:49:52;;;;;;;3.58;1.67;;;;;;;;;;5022606;28;20094;-69
2023/08/09 10:52:19;;;;;;;3.20;2.10;;;;;;;;;;5035496;28;20639;-69
2023/08/09 10:54:46;;;;;;;2.53;1.80;;;;;;;;;;5040688;28;20037;-69
2023/08/09 10:57:12;;;;;;;3.28;2.17;;;;;;;;;;5040007;28;20029;-68
2023/08/09 10:59:39;;;;;;;2.45;1.85;;;;;;;;;;5037659;28;20816;-69
2023/08/09 11:02:08;;;;;;;3.22;2.05;;;;;;;;;;5049109;28;20098;-69
2023/08/09 11:04:34;;;;;;;4.00;1.90;;;;;;;;;;5053716;28;20037;-70
2023/08/09 11:07:01;;;;;;;2.85;1.85;;;;;;;;;;5043665;28;20120;-70
2023/08/09 11:09:28;;;;;;;5.55;1.80;;;;;;;;;;5043038;28;20033;-69
2023/08/09 11:11:54;;;;;;;3.20;1.70;;;;;;;;;;5047501;28;20055;-69
2023/08/09 11:14:21;;;;;;;3.72;2.10;;;;;;;;;;5042546;28;20524;-68
2023/08/09 11:16:47;;;;;;;2.95;1.80;;;;;;;;;;5044253;28;20730;-69
2023/08/09 11:19:18;;;;;;;3.35;2.08;;;;;;;;;;5031416;28;20116;-69
2023/08/09 11:21:47;;;;;;;2.97;1.95;;;;;;;;;;5025847;28;20124;-69
2023/08/09 11:24:15;;;;;;;2.55;1.88;;;;;;;;;;5023959;28;20036;-70
2023/08/09 11:27:07;;;;;;;3.13;1.83;;;;;;;;;;5022926;28;20036;-70
2023/08/09 11:29:33;;;;;;;3.92;2.28;;;;;;;;;;5007223;28;20045;-69
2023/08/09 11:31:58;;;;;;;6.47;2.40;;;;;;;;;;5009311;28;20091;-69
2023/08/09 11:34:24;;;;;;;5.55;2.00;;;;;;;;;;5022994;28;20025;-69
2023/08/09 11:36:52;;;;;;;4.82;2.05;;;;;;;;;;5022713;28;20124;-69
2023/08/09 11:39:21;;;;;;;3.95;2.33;;;;;;;;;;5042972;28;20067;-69
2023/08/09 11:41:56;;;;;;;2.85;2.13;;;;;;;;;;5033547;28;20095;-69
2023/08/09 11:44:31;;;;;;;4.35;2.50;;;;;;;;;;5027389;28;20120;-69
2023/08/09 11:47:01;;;;;;;7.80;2.80;;;;;;;;;;5031486;28;20037;-69
2023/08/09 11:49:28;;;;;;;4.55;2.70;;;;;;;;;;5047522;28;20714;-68
2023/08/09 11:51:54;;;;;;;4.35;2.70;;;;;;;;;;5047124;28;20032;-69
2023/08/09 11:54:21;;;;;;;3.85;3.10;;;;;;;;;;5046793;28;20044;-69
2023/08/09 11:56:47;;;;;;;5.20;3.40;;;;;;;;;;5047662;28;20048;-69
2023/08/09 11:59:16;;;;;;;4.60;2.92;;;;;;;;;;5045316;28;20437;-69
2023/08/09 12:01:44;;;;;;;5.68;3.30;;;;;;;;;;5047693;28;20032;-70
2023/08/09 12:04:13;;;;;;;5.88;3.92;;;;;;;;;;5029214;28;20870;-69
2023/08/09 12:06:43;;;;;;;4.22;3.40;;;;;;;;;;5044370;28;20103;-69
2023/08/09 12:09:36;;;;;;;6.95;4.20;;;;;;;;;;5048722;28;20427;-69
2023/08/09 12:12:12;;;;;;;5.25;3.78;;;;;;;;;;5045665;28;20037;-69
2023/08/09 12:14:45;;;;;;;5.88;4.65;;;;;;;;;;5046200;28;20041;-69
2023/08/09 12:17:22;;;;;;;6.43;4.15;;;;;;;;;;5047134;28;20036;-70
2023/08/09 12:19:48;;;;;;;5.97;4.10;;;;;;;;;;5047062;28;20119;-69
2023/08/09 12:22:14;;;;;;;4.68;3.97;;;;;;;;;;5048312;28;20104;-69
2023/08/09 12:24:40;;;;;;;4.93;4.00;;;;;;;;;;5050627;28;20043;-69
2023/08/09 12:27:06;;;;;;;7.50;4.10;;;;;;;;;;5056134;28;20034;-69
2023/08/09 12:29:32;;;;;;;6.60;4.70;;;;;;;;;;5053545;28;20167;-69
2023/08/09 12:31:59;;;;;;;7.10;4.65;;;;;;;;;;5046109;28;20113;-69
2023/08/09 12:34:24;;;;;;;5.13;3.95;;;;;;;;;;5043002;28;20032;-69
2023/08/09 12:36:51;;;;;;;7.90;5.43;;;;;;;;;;5047663;28;20394;-70
2023/08/09 12:39:16;;;;;;;8.38;5.30;;;;;;;;;;5047115;28;20517;-69
2023/08/09 12:41:42;;;;;;;7.43;4.47;;;;;;;;;;5026492;28;20087;-70
2023/08/09 12:44:08;;;;;;;5.47;4.45;;;;;;;;;;5038415;28;20040;-69
2023/08/09 12:46:34;;;;;;;5.43;4.30;;;;;;;;;;5042289;28;20033;-70
2023/08/09 12:49:00;;;;;;;5.10;4.50;;;;;;;;;;5046042;28;20104;-69
2023/08/09 12:51:25;;;;;;;7.30;5.28;;;;;;;;;;5046251;28;20128;-70
2023/08/09 12:53:50;;;;;;;6.68;4.70;;;;;;;;;;5046714;28;20029;-69
2023/08/09 12:56:17;;;;;;;8.02;5.32;;;;;;;;;;5044617;28;20067;-69
2023/08/09 12:58:42;;;;;;;8.15;4.95;;;;;;;;;;5046019;28;20044;-69
2023/08/09 13:01:08;;;;;;;7.30;4.88;;;;;;;;;;5046981;28;20468;-69
2023/08/09 13:03:33;;;;;;;6.97;4.80;;;;;;;;;;5046279;28;20672;-69
2023/08/09 13:05:59;;;;;;;4.65;4.20;;;;;;;;;;5046486;28;20739;-69
2023/08/09 13:08:24;;;;;;;6.63;4.70;;;;;;;;;;5042507;28;20076;-69
2023/08/09 13:10:50;;;;;;;5.97;3.90;;;;;;;;;;5039864;28;20048;-69
2023/08/09 13:13:16;;;;;;;7.75;4.13;;;;;;;;;;5055063;28;20634;-69
2023/08/09 13:15:41;;;;;;;7.55;4.47;;;;;;;;;;5046031;28;20478;-69
2023/08/09 13:18:07;;;;;;;6.45;4.20;;;;;;;;;;5046160;28;20035;-69
2023/08/09 13:20:32;;;;;;;6.05;4.53;;;;;;;;;;5045097;28;20504;-70
2023/08/09 13:22:57;;;;;;;5.72;3.80;;;;;;;;;;5045193;28;20041;-69
2023/08/09 13:25:23;;;;;;;7.00;4.55;;;;;;;;;;5035828;28;20048;-69
2023/08/09 13:27:49;;;;;;;9.52;3.95;;;;;;;;;;5035585;28;20544;-69
2023/08/09 13:30:14;;;;;;;3.70;3.10;;;;;;;;;;5045761;28;20056;-71
2023/08/09 13:32:42;;;;;;;3.65;3.10;;;;;;;;;;5043890;28;20258;-71
2023/08/09 13:35:09;;;;;;;5.15;2.95;;;;;;;;;;5045987;28;20045;-71
2023/08/09 13:37:39;;;;;;;4.82;3.45;;;;;;;;;;5039336;28;20045;-71
2023/08/09 13:40:09;;;;;;;2.78;2.10;;;;;;;;;;5041357;28;20091;-71
2023/08/09 13:42:34;;;;;;;3.22;1.92;;;;;;;;;;5041857;28;20024;-71
2023/08/09 13:45:00;;;;;;;2.38;1.45;;;;;;;;;;5040815;28;20041;-71
2023/08/09 13:47:25;;;;;;;2.22;1.63;;;;;;;;;;5041833;28;20518;-71
2023/08/09 13:49:50;;;;;;;2.38;1.55;;;;;;;;;;5039007;28;20037;-71
2023/08/09 13:52:16;;;;;;;2.97;1.65;;;;;;;;;;5041940;28;20041;-71
2023/08/09 13:54:42;;;;;;;4.63;1.50;;;;;;;;;;5037971;28;20058;-71
2023/08/09 13:57:08;;;;;;;1.77;1.30;;;;;;;;;;5034000;28;20763;-72
2023/08/09 13:59:33;;;;;;;1.70;1.40;;;;;;;;;;5026972;28;20080;-71
2023/08/09 14:01:59;;;;;;;4.10;1.70;;;;;;;;;;5030847;28;20067;-71
2023/08/09 14:04:24;;;;;;;1.75;1.10;;;;;;;;;;5044834;28;20041;-71
2023/08/09 14:06:50;;;;;;;1.63;1.23;;;;;;;;;;5041966;28;20516;-71
2023/08/09 14:09:16;;;;;;;2.30;1.50;;;;;;;;;;5044469;28;20016;-70
2023/08/09 14:11:42;;;;;;;2.25;1.45;;;;;;;;;;5040896;28;20036;-70
2023/08/09 14:14:08;;;;;;;2.40;1.15;;;;;;;;;;5043807;28;20055;-70
2023/08/09 14:16:33;;;;;;;2.80;1.27;;;;;;;;;;5044416;28;20030;-70
2023/08/09 14:18:59;;;;;;;3.47;1.27;;;;;;;;;;5044061;28;20056;-70
2023/08/09 14:21:24;;;;;;;2.40;1.10;;;;;;;;;;5044974;28;20040;-70
2023/08/09 14:23:50;;;;;;;2.17;1.65;;;;;;;;;;5043793;28;20068;-71
2023/08/09 14:26:15;;;;;;;2.17;1.20;;;;;;;;;;5044535;28;20617;-70
2023/08/09 14:28:41;;;;;;;2.45;1.02;;;;;;;;;;5043848;28;20124;-70
2023/08/09 14:31:06;;;;;;;2.50;1.25;;;;;;;;;;5044731;28;20128;-70
2023/08/09 14:33:32;;;;;;;1.50;1.15;;;;;;;;;;5045330;28;20410;-70
2023/08/09 14:35:57;;;;;;;1.70;1.27;;;;;;;;;;5044337;28;20421;-70
2023/08/09 14:38:24;;;;;;;2.03;1.13;;;;;;;;;;5040692;28;20663;-70